createdAt,value
2022-10-31T00:01:37.444Z,33.40
2022-10-31T00:04:07.432Z,34.60
2022-10-31T00:06:36.006Z,32.70
2022-10-31T00:09:05.626Z,36.90
2022-10-31T00:11:34.138Z,40.90
2022-10-31T00:14:02.917Z,41.10
2022-10-31T00:16:34.634Z,36.20
2022-10-31T00:19:06.701Z,36.00
2022-10-31T00:21:36.199Z,38.90
2022-10-31T00:24:06.121Z,37.50
2022-10-31T00:26:34.694Z,34.70
2022-10-31T00:29:03.777Z,36.50
2022-10-31T00:31:32.633Z,33.40
2022-10-31T00:34:03.250Z,37.20
2022-10-31T00:36:31.905Z,32.30
2022-10-31T00:48:02.738Z,35.70
2022-10-31T00:53:07.792Z,41.10
2022-10-31T00:55:36.433Z,40.30
2022-10-31T00:58:11.812Z,41.90
2022-10-31T01:00:40.771Z,42.70
2022-10-31T01:17:22.892Z,42.70
2022-10-31T01:28:54.610Z,37.50
2022-10-31T01:31:25.304Z,39.60
2022-10-31T01:34:18.031Z,35.50
2022-10-31T01:46:06.343Z,32.20
2022-10-31T01:54:16.507Z,30.10
2022-10-31T02:10:58.775Z,33.80
2022-10-31T02:14:42.562Z,34.40
2022-10-31T02:17:11.533Z,35.60
2022-10-31T02:19:52.674Z,36.40
2022-10-31T02:22:28.732Z,32.20
2022-10-31T02:25:16.364Z,33.60
2022-10-31T02:28:03.176Z,28.70
2022-10-31T02:30:42.058Z,26.90
2022-10-31T02:33:22.980Z,28.10
2022-10-31T02:36:01.329Z,27.90
2022-10-31T02:38:45.258Z,26.60
2022-10-31T02:41:24.202Z,31.00
2022-10-31T02:44:06.203Z,32.00
2022-10-31T02:46:40.120Z,30.00
2022-10-31T02:49:15.849Z,39.40
2022-10-31T02:51:45.904Z,32.90
2022-10-31T02:54:23.490Z,39.00
2022-10-31T02:56:58.492Z,34.90
2022-10-31T02:59:32.789Z,32.80
2022-10-31T03:02:28.625Z,30.10
2022-10-31T03:05:12.676Z,30.80
2022-10-31T03:07:48.587Z,31.60
2022-10-31T03:10:24.596Z,30.60
2022-10-31T03:13:04.306Z,31.60
2022-10-31T03:15:35.559Z,27.10
2022-10-31T03:18:09.040Z,28.00
2022-10-31T03:20:43.917Z,32.60
2022-10-31T03:23:16.882Z,34.80
2022-10-31T03:25:49.219Z,33.30
2022-10-31T03:28:24.320Z,36.90
2022-10-31T03:30:54.530Z,32.50
2022-10-31T03:33:29.670Z,29.70
2022-10-31T03:36:03.378Z,29.80
2022-10-31T03:38:39.257Z,36.10
2022-10-31T03:41:15.093Z,27.90
2022-10-31T03:43:53.329Z,30.40
2022-10-31T03:46:22.460Z,35.00
2022-10-31T03:48:52.291Z,39.60
2022-10-31T03:51:27.227Z,41.50
2022-10-31T03:54:02.960Z,37.20
2022-10-31T03:56:37.123Z,36.10
2022-10-31T03:59:11.639Z,36.00
2022-10-31T04:01:45.755Z,34.00
2022-10-31T04:04:15.333Z,36.80
2022-10-31T04:06:46.097Z,31.70
2022-10-31T04:09:17.053Z,38.40
2022-10-31T04:11:52.252Z,38.10
2022-10-31T04:14:40.426Z,40.10
2022-10-31T04:17:13.812Z,41.70
2022-10-31T04:19:43.073Z,40.50
2022-10-31T04:22:11.765Z,40.40
2022-10-31T04:24:41.652Z,44.10
2022-10-31T04:29:38.479Z,47.00
2022-10-31T04:32:07.211Z,46.90
2022-10-31T04:34:36.061Z,41.40
2022-10-31T04:37:05.002Z,44.10
2022-10-31T04:39:34.723Z,49.20
2022-10-31T04:42:26.174Z,36.60
2022-10-31T04:44:55.032Z,37.10
2022-10-31T04:47:23.559Z,36.00
2022-10-31T04:49:52.107Z,34.00
2022-10-31T04:52:21.114Z,31.80
2022-10-31T04:54:49.904Z,29.70
2022-10-31T04:57:42.623Z,32.40
2022-10-31T05:00:15.095Z,32.20
2022-10-31T05:02:47.364Z,34.70
2022-10-31T05:05:18.247Z,33.80
2022-10-31T05:07:48.776Z,30.40
2022-10-31T05:10:20.116Z,32.80
2022-10-31T05:12:52.862Z,39.10
2022-10-31T05:15:40.046Z,36.50
2022-10-31T05:18:29.239Z,35.20
2022-10-31T05:21:32.904Z,36.90
2022-10-31T05:24:07.654Z,45.00
2022-10-31T05:26:36.795Z,35.60
2022-10-31T05:29:05.517Z,39.40
2022-10-31T05:31:34.293Z,37.50
2022-10-31T05:34:03.409Z,35.30
2022-10-31T05:36:50.499Z,34.80
2022-10-31T05:39:24.399Z,38.30
2022-10-31T05:41:56.895Z,39.60
2022-10-31T05:44:28.573Z,37.90
2022-10-31T05:47:26.624Z,32.00
2022-10-31T05:50:42.217Z,30.30
2022-10-31T05:53:12.657Z,34.70
2022-10-31T05:55:43.172Z,35.10
2022-10-31T05:58:16.767Z,39.70
2022-10-31T06:00:51.599Z,33.90
2022-10-31T06:03:20.723Z,35.60
2022-10-31T06:05:55.011Z,32.00
2022-10-31T06:08:26.372Z,33.60
2022-10-31T06:10:56.091Z,37.00
2022-10-31T06:13:37.244Z,33.60
2022-10-31T06:16:15.200Z,29.10
2022-10-31T06:18:45.993Z,34.70
2022-10-31T06:21:17.957Z,40.50
2022-10-31T06:23:49.968Z,32.00
2022-10-31T06:26:46.865Z,33.80
2022-10-31T06:29:15.806Z,28.40
2022-10-31T06:32:04.981Z,33.20
2022-10-31T06:34:35.095Z,32.60
2022-10-31T06:37:03.526Z,31.20
2022-10-31T06:39:32.351Z,27.80
2022-10-31T06:42:02.401Z,36.90
2022-10-31T06:44:31.770Z,31.40
2022-10-31T06:47:32.416Z,27.10
2022-10-31T06:50:30.928Z,31.50
2022-10-31T06:53:00.290Z,31.50
2022-10-31T06:55:29.144Z,29.60
2022-10-31T06:58:03.069Z,30.00
2022-10-31T07:00:32.898Z,27.70
2022-10-31T07:03:10.382Z,29.40
2022-10-31T07:05:39.322Z,32.00
2022-10-31T07:08:11.352Z,28.60
2022-10-31T07:10:41.435Z,30.10
2022-10-31T07:13:13.051Z,30.60
2022-10-31T07:15:43.419Z,28.40
2022-10-31T07:18:12.847Z,28.50
2022-10-31T07:20:41.702Z,27.20
2022-10-31T07:23:11.441Z,27.10
2022-10-31T07:25:40.219Z,24.10
2022-10-31T07:33:23.503Z,30.50
2022-10-31T07:36:40.339Z,26.00
2022-10-31T07:39:09.030Z,21.20
2022-10-31T07:41:38.182Z,22.50
2022-10-31T07:44:06.987Z,25.20
2022-10-31T07:47:04.889Z,25.20
2022-10-31T07:50:11.028Z,22.30
2022-10-31T07:53:01.374Z,30.00
2022-10-31T07:55:59.965Z,21.70
2022-10-31T07:58:31.262Z,20.80
2022-10-31T08:01:01.108Z,23.70
2022-10-31T08:03:35.759Z,27.50
2022-10-31T08:06:22.837Z,21.40
2022-10-31T08:08:51.577Z,18.30
2022-10-31T08:11:20.210Z,22.10
2022-10-31T08:13:52.710Z,27.60
2022-10-31T08:16:23.875Z,18.70
2022-10-31T08:19:23.087Z,20.90
2022-10-31T08:21:52.957Z,19.70
2022-10-31T08:24:21.527Z,19.70
2022-10-31T08:26:50.312Z,19.70
2022-10-31T08:29:19.575Z,18.60
2022-10-31T08:31:48.494Z,13.60
2022-10-31T08:34:36.000Z,15.60
2022-10-31T08:37:33.730Z,18.40
2022-10-31T08:48:59.469Z,19.60
2022-10-31T09:00:32.446Z,16.10
2022-10-31T09:04:14.054Z,19.60
2022-10-31T09:06:50.355Z,19.50
2022-10-31T09:10:32.070Z,19.40
2022-10-31T09:17:35.441Z,17.00
2022-10-31T09:25:02.483Z,16.50
2022-10-31T09:27:37.674Z,14.20
2022-10-31T09:30:10.909Z,18.60
2022-10-31T09:32:46.322Z,20.20
2022-10-31T09:40:11.539Z,14.20
2022-10-31T09:47:30.646Z,18.70
2022-10-31T09:51:50.458Z,27.20
2022-10-31T09:56:13.604Z,18.10
2022-10-31T10:04:00.642Z,12.10
2022-10-31T10:20:35.398Z,12.80
2022-10-31T10:23:22.206Z,15.20
2022-10-31T10:25:56.462Z,13.90
2022-10-31T10:28:30.568Z,16.50
2022-10-31T10:31:07.767Z,12.90
2022-10-31T10:33:41.033Z,18.20
2022-10-31T10:36:17.845Z,15.60
2022-10-31T10:38:53.142Z,13.90
2022-10-31T10:41:24.216Z,13.50
2022-10-31T10:43:54.843Z,14.80
2022-10-31T10:46:51.065Z,16.00
2022-10-31T10:49:25.999Z,13.40
2022-10-31T10:52:19.487Z,14.60
2022-10-31T10:55:03.929Z,22.20
2022-10-31T10:57:57.501Z,16.00
2022-10-31T11:00:28.237Z,19.30
2022-10-31T11:03:11.062Z,21.00
2022-10-31T11:05:45.314Z,12.10
2022-10-31T11:08:27.578Z,23.10
2022-10-31T11:11:07.580Z,11.70
2022-10-31T11:13:37.370Z,12.40
2022-10-31T11:16:09.413Z,17.80
2022-10-31T11:18:45.606Z,13.80
2022-10-31T11:21:24.775Z,18.40
2022-10-31T11:24:04.166Z,21.30
2022-10-31T11:26:36.229Z,21.00
2022-10-31T11:29:14.111Z,14.70
2022-10-31T11:31:44.018Z,18.30
2022-10-31T11:34:26.517Z,15.90
2022-10-31T11:36:59.409Z,19.90
2022-10-31T11:39:27.983Z,15.70
2022-10-31T11:42:06.203Z,15.50
2022-10-31T11:44:37.678Z,16.80
2022-10-31T11:47:12.760Z,14.60
2022-10-31T11:49:44.076Z,17.40
2022-10-31T11:52:19.787Z,17.40
2022-10-31T11:54:52.621Z,13.00
2022-10-31T11:57:30.375Z,17.00
2022-10-31T12:00:00.816Z,15.30
2022-10-31T12:02:29.313Z,16.80
2022-10-31T12:05:05.409Z,13.30
2022-10-31T12:07:33.970Z,14.70
2022-10-31T12:10:13.005Z,16.60
2022-10-31T12:12:55.218Z,16.30
2022-10-31T12:15:35.843Z,14.00
2022-10-31T12:18:39.474Z,14.40
2022-10-31T12:21:31.400Z,12.10
2022-10-31T12:24:14.268Z,13.40
2022-10-31T12:26:53.385Z,13.50
2022-10-31T12:29:35.228Z,15.00
2022-10-31T12:32:21.245Z,11.60
2022-10-31T12:35:18.336Z,18.80
2022-10-31T12:38:00.063Z,13.20
2022-10-31T12:40:52.356Z,14.70
2022-10-31T12:43:36.206Z,17.40
2022-10-31T12:46:11.740Z,13.40
2022-10-31T12:48:57.488Z,14.60
2022-10-31T12:51:34.772Z,11.00
2022-10-31T12:54:22.233Z,17.20
2022-10-31T12:57:00.149Z,13.60
2022-10-31T12:59:34.625Z,15.70
2022-10-31T13:05:21.914Z,13.50
2022-10-31T13:07:59.482Z,14.30
2022-10-31T13:10:36.731Z,13.60
2022-10-31T13:16:58.497Z,19.80
2022-10-31T13:19:35.826Z,11.30
2022-10-31T13:22:12.054Z,14.40
2022-10-31T13:24:52.741Z,15.50
2022-10-31T13:27:27.570Z,16.30
2022-10-31T13:30:06.260Z,12.00
2022-10-31T13:32:46.874Z,11.90
2022-10-31T13:35:25.310Z,12.60
2022-10-31T13:38:07.837Z,16.80
2022-10-31T13:40:46.529Z,17.40
2022-10-31T13:43:29.530Z,13.80
2022-10-31T13:46:01.400Z,14.20
2022-10-31T13:48:45.640Z,13.90
2022-10-31T13:51:29.368Z,11.20
2022-10-31T13:54:03.237Z,13.30
2022-10-31T13:56:36.894Z,18.70
2022-10-31T13:59:23.389Z,14.60
2022-10-31T14:02:00.886Z,13.20
2022-10-31T14:04:40.957Z,13.70
2022-10-31T14:07:18.010Z,21.60
2022-10-31T14:09:58.342Z,17.70
2022-10-31T14:15:08.060Z,13.80
2022-10-31T14:17:48.023Z,21.00
2022-10-31T14:20:34.908Z,23.70
2022-10-31T14:23:38.580Z,24.90
2022-10-31T14:26:37.968Z,24.00
2022-10-31T14:29:27.594Z,20.70
2022-10-31T14:32:14.626Z,22.50
2022-10-31T14:34:54.118Z,21.90
2022-10-31T14:37:50.799Z,21.00
2022-10-31T14:40:31.091Z,13.40
2022-10-31T14:48:35.753Z,17.20
2022-10-31T14:51:17.109Z,18.40
2022-10-31T14:53:52.393Z,14.10
2022-10-31T14:56:28.439Z,16.60
2022-10-31T14:59:03.552Z,15.90
2022-10-31T15:01:38.224Z,15.40
2022-10-31T15:04:25.083Z,13.40
2022-10-31T15:07:04.411Z,15.30
2022-10-31T15:09:38.830Z,15.00
2022-10-31T15:12:27.650Z,15.10
2022-10-31T15:15:00.793Z,20.90
2022-10-31T15:17:32.884Z,12.80
2022-10-31T15:20:07.676Z,22.60
2022-10-31T15:22:39.622Z,11.10
2022-10-31T15:25:21.790Z,19.00
2022-10-31T15:27:54.627Z,18.00
2022-10-31T15:30:29.980Z,18.50
2022-10-31T15:33:01.826Z,12.90
2022-10-31T15:35:34.316Z,13.40
2022-10-31T15:38:06.377Z,15.00
2022-10-31T15:40:41.285Z,18.90
2022-10-31T15:43:22.332Z,20.70
2022-10-31T15:45:54.600Z,13.10
2022-10-31T15:48:30.766Z,11.30
2022-10-31T15:51:03.596Z,15.40
2022-10-31T15:53:43.914Z,13.60
2022-10-31T15:58:50.880Z,17.20
2022-10-31T16:01:28.355Z,13.70
2022-10-31T16:04:06.813Z,20.10
2022-10-31T16:06:38.753Z,12.50
2022-10-31T16:09:26.073Z,13.10
2022-10-31T16:12:02.279Z,18.40
2022-10-31T16:14:41.122Z,14.40
2022-10-31T16:17:17.588Z,11.30
2022-10-31T16:19:57.358Z,15.60
2022-10-31T16:22:31.949Z,12.00
2022-10-31T16:25:10.662Z,20.60
2022-10-31T16:27:53.184Z,16.40
2022-10-31T16:30:38.408Z,9.80
2022-10-31T16:33:25.984Z,18.60
2022-10-31T16:36:15.785Z,17.50
2022-10-31T16:38:56.763Z,17.60
2022-10-31T16:41:29.168Z,18.20
2022-10-31T16:44:03.810Z,14.80
2022-10-31T16:46:35.956Z,18.50
2022-10-31T16:49:12.048Z,19.30
2022-10-31T16:51:44.690Z,16.90
2022-10-31T16:54:16.940Z,12.70
2022-10-31T16:56:49.194Z,11.90
2022-10-31T16:59:21.262Z,11.30
2022-10-31T17:01:54.723Z,14.40
2022-10-31T17:04:27.413Z,16.50
2022-10-31T17:06:59.354Z,15.90
2022-10-31T17:09:31.435Z,16.20
2022-10-31T17:12:03.469Z,16.60
2022-10-31T17:14:36.480Z,15.40
2022-10-31T17:17:09.403Z,18.00
2022-10-31T17:19:41.595Z,18.40
2022-10-31T17:22:14.781Z,15.20
2022-10-31T17:24:46.939Z,13.50
2022-10-31T17:27:19.204Z,15.50
2022-10-31T17:29:51.171Z,16.30
2022-10-31T17:32:23.190Z,19.10
2022-10-31T17:34:55.285Z,18.50
2022-10-31T17:37:27.180Z,19.00
2022-10-31T17:39:59.126Z,16.20
2022-10-31T17:42:31.461Z,15.90
2022-10-31T17:45:03.596Z,13.80
2022-10-31T17:47:36.666Z,18.50
2022-10-31T17:50:12.831Z,21.00
2022-10-31T17:52:46.113Z,15.50
2022-10-31T17:55:19.177Z,22.30
2022-10-31T17:57:52.419Z,20.30
2022-10-31T18:00:24.977Z,21.80
2022-10-31T18:02:56.988Z,18.20
2022-10-31T18:05:29.624Z,26.40
2022-10-31T18:08:04.221Z,20.80
2022-10-31T18:10:37.059Z,18.70
2022-10-31T18:13:08.994Z,20.20
2022-10-31T18:15:44.261Z,22.10
2022-10-31T18:18:16.437Z,21.50
2022-10-31T18:20:48.442Z,20.50
2022-10-31T18:23:20.473Z,16.00
2022-10-31T18:25:52.465Z,19.80
2022-10-31T18:28:24.411Z,19.20
2022-10-31T18:30:59.180Z,18.80
2022-10-31T18:33:31.466Z,18.50
2022-10-31T18:36:08.860Z,18.20
2022-10-31T18:38:44.677Z,17.10
2022-10-31T18:41:17.014Z,24.60
2022-10-31T18:43:52.139Z,24.50
2022-10-31T18:46:24.308Z,22.60
2022-10-31T18:48:56.490Z,23.80
2022-10-31T18:51:28.827Z,22.80
2022-10-31T18:54:02.413Z,30.80
2022-10-31T18:56:34.367Z,32.60
2022-10-31T18:59:06.320Z,27.80
2022-10-31T19:01:38.719Z,30.90
2022-10-31T19:04:12.088Z,31.10
2022-10-31T19:06:44.140Z,30.00
2022-10-31T19:09:16.121Z,30.90
2022-10-31T19:11:48.007Z,30.30
2022-10-31T19:14:20.350Z,26.60
2022-10-31T19:16:52.668Z,26.30
2022-10-31T19:19:25.215Z,27.00
2022-10-31T19:21:59.776Z,28.00
2022-10-31T19:24:31.750Z,24.10
2022-10-31T19:27:04.194Z,24.00
2022-10-31T19:29:36.209Z,25.00
2022-10-31T19:32:08.747Z,26.30
2022-10-31T19:34:40.778Z,23.10
2022-10-31T19:37:13.027Z,28.10
2022-10-31T19:39:45.035Z,25.80
2022-10-31T19:42:16.940Z,24.70
2022-10-31T19:44:48.989Z,24.50
2022-10-31T19:47:20.862Z,23.50
2022-10-31T19:49:52.807Z,26.40
2022-10-31T19:52:24.943Z,25.30
2022-10-31T19:54:56.904Z,22.50
2022-10-31T19:57:56.200Z,24.80
2022-10-31T20:00:22.048Z,29.60
2022-10-31T20:02:54.308Z,21.80
2022-10-31T20:05:26.393Z,21.80
2022-10-31T20:07:58.449Z,23.00
2022-10-31T20:10:30.385Z,20.60
2022-10-31T20:13:02.586Z,29.30
2022-10-31T20:15:36.424Z,26.90
2022-10-31T20:18:08.486Z,30.10
2022-10-31T20:20:40.530Z,30.80
2022-10-31T20:23:12.704Z,26.00
2022-10-31T20:25:51.089Z,30.30
2022-10-31T20:28:23.223Z,38.20
2022-10-31T20:30:58.160Z,40.70
2022-10-31T20:33:30.400Z,44.20
2022-10-31T20:36:05.958Z,44.80
2022-10-31T20:38:40.382Z,47.60
2022-10-31T20:41:13.405Z,55.30
2022-10-31T20:43:45.809Z,52.30
2022-10-31T20:46:19.375Z,47.10
2022-10-31T20:48:51.580Z,46.10
2022-10-31T20:51:25.419Z,40.30
2022-10-31T20:53:59.182Z,50.20
2022-10-31T20:56:31.387Z,55.90
2022-10-31T20:59:03.288Z,57.20
2022-10-31T21:01:38.515Z,64.20
2022-10-31T21:04:13.729Z,64.50
2022-10-31T21:06:49.455Z,65.40
2022-10-31T21:09:21.794Z,74.20
2022-10-31T21:11:53.831Z,78.20
2022-10-31T21:14:26.469Z,68.60
2022-10-31T21:16:58.335Z,65.10
2022-10-31T21:19:30.321Z,64.10
2022-10-31T21:22:02.249Z,64.50
2022-10-31T21:24:34.212Z,65.90
2022-10-31T21:27:09.959Z,64.30
2022-10-31T21:29:44.443Z,64.00
2022-10-31T21:32:16.698Z,63.40
2022-10-31T21:34:51.176Z,54.00
2022-10-31T21:37:23.131Z,51.90
2022-10-31T21:39:55.286Z,48.10
2022-10-31T21:42:27.297Z,47.90
2022-10-31T21:45:00.561Z,49.10
2022-10-31T21:47:32.418Z,44.20
2022-10-31T21:50:04.395Z,48.60
2022-10-31T21:52:36.366Z,43.40
2022-10-31T21:55:09.562Z,45.20
2022-10-31T21:57:42.697Z,44.50
2022-10-31T22:00:16.051Z,48.30
2022-10-31T22:02:47.930Z,43.90
2022-10-31T22:05:20.231Z,45.20
2022-10-31T22:07:52.082Z,44.60
2022-10-31T22:10:24.422Z,42.30
2022-10-31T22:12:56.326Z,42.90
2022-10-31T22:15:28.595Z,46.40
2022-10-31T22:18:00.978Z,39.50
2022-10-31T22:20:33.357Z,36.50
2022-10-31T22:23:07.665Z,38.30
2022-10-31T22:25:39.889Z,37.90
2022-10-31T22:28:11.828Z,38.10
2022-10-31T22:30:43.777Z,37.20
2022-10-31T22:33:16.166Z,39.60
2022-10-31T22:35:48.114Z,33.50
2022-10-31T22:38:20.024Z,34.20
2022-10-31T22:40:52.086Z,32.90
2022-10-31T22:43:24.482Z,33.70
2022-10-31T22:46:03.568Z,38.50
2022-10-31T22:48:38.951Z,44.00
2022-10-31T22:51:13.909Z,46.30
2022-10-31T22:53:46.249Z,42.80
2022-10-31T22:56:19.555Z,45.80
2022-10-31T22:58:54.414Z,43.30
2022-10-31T23:01:30.279Z,47.60
2022-10-31T23:04:02.776Z,37.70
2022-10-31T23:09:49.380Z,43.60
2022-10-31T23:12:39.098Z,49.40
2022-10-31T23:15:12.016Z,40.90
2022-10-31T23:17:43.936Z,45.90
2022-10-31T23:20:15.919Z,43.10
2022-10-31T23:22:47.875Z,39.30
2022-10-31T23:25:37.503Z,43.30
2022-10-31T23:28:09.557Z,38.20
2022-10-31T23:30:41.814Z,43.90
2022-10-31T23:33:13.661Z,41.70
2022-10-31T23:35:47.457Z,40.00
2022-10-31T23:38:19.323Z,38.10
2022-10-31T23:40:51.144Z,41.30
2022-10-31T23:43:23.075Z,40.50
2022-10-31T23:45:55.452Z,39.60
2022-10-31T23:48:28.072Z,45.50
2022-10-31T23:51:00.103Z,46.30
2022-10-31T23:53:32.419Z,54.60
2022-10-31T23:56:04.378Z,59.80
2022-10-31T23:58:37.624Z,52.90
